sensor_id;sensor_type;location;lat;lon;timestamp;temperature;humidity
9118;DHT22;4594;50.994;7.126;2024-01-07T00:02:11;6.80;57.30
9118;DHT22;4594;50.994;7.126;2024-01-07T00:04:36;7.10;57.60
9118;DHT22;4594;50.994;7.126;2024-01-07T00:07:04;6.80;57.30
9118;DHT22;4594;50.994;7.126;2024-01-07T00:09:30;6.80;57.30
9118;DHT22;4594;50.994;7.126;2024-01-07T00:11:55;6.80;57.30
9118;DHT22;4594;50.994;7.126;2024-01-07T00:14:21;6.80;57.20
9118;DHT22;4594;50.994;7.126;2024-01-07T00:16:47;6.80;57.50
9118;DHT22;4594;50.994;7.126;2024-01-07T00:19:12;6.80;57.20
9118;DHT22;4594;50.994;7.126;2024-01-07T00:21:38;6.80;57.20
9118;DHT22;4594;50.994;7.126;2024-01-07T00:24:04;6.80;57.20
9118;DHT22;4594;50.994;7.126;2024-01-07T00:26:30;6.80;57.20
9118;DHT22;4594;50.994;7.126;2024-01-07T00:28:56;6.80;57.20
9118;DHT22;4594;50.994;7.126;2024-01-07T00:31:21;6.80;57.30
9118;DHT22;4594;50.994;7.126;2024-01-07T00:33:47;6.80;57.30
9118;DHT22;4594;50.994;7.126;2024-01-07T00:36:13;6.80;57.30
9118;DHT22;4594;50.994;7.126;2024-01-07T00:38:38;6.80;57.30
9118;DHT22;4594;50.994;7.126;2024-01-07T00:41:04;6.80;57.20
9118;DHT22;4594;50.994;7.126;2024-01-07T00:43:30;6.80;57.20
9118;DHT22;4594;50.994;7.126;2024-01-07T00:45:55;6.90;57.30
9118;DHT22;4594;50.994;7.126;2024-01-07T00:48:21;6.80;57.30
9118;DHT22;4594;50.994;7.126;2024-01-07T00:50:47;6.80;57.30
9118;DHT22;4594;50.994;7.126;2024-01-07T00:53:13;6.80;57.30
9118;DHT22;4594;50.994;7.126;2024-01-07T00:55:38;6.80;57.30
9118;DHT22;4594;50.994;7.126;2024-01-07T00:58:04;7.70;57.90
9118;DHT22;4594;50.994;7.126;2024-01-07T01:00:29;6.80;57.30
9118;DHT22;4594;50.994;7.126;2024-01-07T01:02:55;6.80;57.30
9118;DHT22;4594;50.994;7.126;2024-01-07T01:05:21;6.80;57.30
9118;DHT22;4594;50.994;7.126;2024-01-07T01:07:47;6.80;57.30
9118;DHT22;4594;50.994;7.126;2024-01-07T01:10:13;6.80;57.30
9118;DHT22;4594;50.994;7.126;2024-01-07T01:12:42;6.80;57.30
9118;DHT22;4594;50.994;7.126;2024-01-07T01:15:08;6.80;57.30
9118;DHT22;4594;50.994;7.126;2024-01-07T01:17:34;6.80;57.30
9118;DHT22;4594;50.994;7.126;2024-01-07T01:20:00;6.80;57.30
9118;DHT22;4594;50.994;7.126;2024-01-07T01:22:26;6.90;57.40
9118;DHT22;4594;50.994;7.126;2024-01-07T01:24:51;6.80;57.30
9118;DHT22;4594;50.994;7.126;2024-01-07T01:27:19;6.80;57.20
9118;DHT22;4594;50.994;7.126;2024-01-07T01:29:44;6.80;57.10
9118;DHT22;4594;50.994;7.126;2024-01-07T01:32:11;7.60;57.60
9118;DHT22;4594;50.994;7.126;2024-01-07T01:34:37;6.80;56.90
9118;DHT22;4594;50.994;7.126;2024-01-07T01:37:03;6.80;56.90
9118;DHT22;4594;50.994;7.126;2024-01-07T01:39:29;6.80;56.90
9118;DHT22;4594;50.994;7.126;2024-01-07T01:41:54;6.80;56.90
9118;DHT22;4594;50.994;7.126;2024-01-07T01:44:21;6.80;57.00
9118;DHT22;4594;50.994;7.126;2024-01-07T01:46:47;6.70;56.80
9118;DHT22;4594;50.994;7.126;2024-01-07T01:49:13;7.30;57.20
9118;DHT22;4594;50.994;7.126;2024-01-07T01:51:40;6.70;56.70
9118;DHT22;4594;50.994;7.126;2024-01-07T01:54:07;6.70;56.60
9118;DHT22;4594;50.994;7.126;2024-01-07T01:56:33;6.70;56.50
9118;DHT22;4594;50.994;7.126;2024-01-07T01:58:59;6.70;56.50
9118;DHT22;4594;50.994;7.126;2024-01-07T02:01:25;6.70;56.50
9118;DHT22;4594;50.994;7.126;2024-01-07T02:03:51;6.60;56.50
9118;DHT22;4594;50.994;7.126;2024-01-07T02:06:19;6.70;56.70
9118;DHT22;4594;50.994;7.126;2024-01-07T02:08:46;6.60;56.70
9118;DHT22;4594;50.994;7.126;2024-01-07T02:11:19;6.60;56.70
9118;DHT22;4594;50.994;7.126;2024-01-07T02:13:46;6.60;56.10
9118;DHT22;4594;50.994;7.126;2024-01-07T02:16:14;6.60;56.80
9118;DHT22;4594;50.994;7.126;2024-01-07T02:18:44;6.60;56.80
9118;DHT22;4594;50.994;7.126;2024-01-07T02:21:12;6.70;56.60
9118;DHT22;4594;50.994;7.126;2024-01-07T02:23:39;6.60;56.90
9118;DHT22;4594;50.994;7.126;2024-01-07T02:26:05;6.60;57.00
9118;DHT22;4594;50.994;7.126;2024-01-07T02:28:32;6.60;56.90
9118;DHT22;4594;50.994;7.126;2024-01-07T02:30:59;6.60;56.80
9118;DHT22;4594;50.994;7.126;2024-01-07T02:33:25;6.60;56.80
9118;DHT22;4594;50.994;7.126;2024-01-07T02:35:51;6.60;56.90
9118;DHT22;4594;50.994;7.126;2024-01-07T02:38:17;6.60;56.90
9118;DHT22;4594;50.994;7.126;2024-01-07T02:40:43;6.60;56.90
9118;DHT22;4594;50.994;7.126;2024-01-07T02:43:08;6.60;57.00
9118;DHT22;4594;50.994;7.126;2024-01-07T02:45:34;6.60;57.00
9118;DHT22;4594;50.994;7.126;2024-01-07T02:48:00;6.60;57.00
9118;DHT22;4594;50.994;7.126;2024-01-07T02:50:25;6.60;57.00
9118;DHT22;4594;50.994;7.126;2024-01-07T02:52:51;6.60;57.00
9118;DHT22;4594;50.994;7.126;2024-01-07T02:55:18;6.60;57.00
9118;DHT22;4594;50.994;7.126;2024-01-07T02:57:43;6.60;57.00
9118;DHT22;4594;50.994;7.126;2024-01-07T03:00:09;6.60;56.90
9118;DHT22;4594;50.994;7.126;2024-01-07T03:02:35;6.60;57.00
9118;DHT22;4594;50.994;7.126;2024-01-07T03:05:01;6.60;56.90
9118;DHT22;4594;50.994;7.126;2024-01-07T03:07:27;6.60;56.80
9118;DHT22;4594;50.994;7.126;2024-01-07T03:09:54;6.60;56.80
9118;DHT22;4594;50.994;7.126;2024-01-07T03:12:20;6.60;56.70
9118;DHT22;4594;50.994;7.126;2024-01-07T03:14:45;6.60;56.70
9118;DHT22;4594;50.994;7.126;2024-01-07T03:17:11;6.60;56.80
9118;DHT22;4594;50.994;7.126;2024-01-07T03:19:38;6.60;56.70
9118;DHT22;4594;50.994;7.126;2024-01-07T03:22:04;6.60;56.60
9118;DHT22;4594;50.994;7.126;2024-01-07T03:24:32;6.60;56.60
9118;DHT22;4594;50.994;7.126;2024-01-07T03:26:58;6.50;56.50
9118;DHT22;4594;50.994;7.126;2024-01-07T03:29:23;6.50;56.60
9118;DHT22;4594;50.994;7.126;2024-01-07T03:31:49;6.50;56.60
9118;DHT22;4594;50.994;7.126;2024-01-07T03:34:16;6.50;56.60
9118;DHT22;4594;50.994;7.126;2024-01-07T03:36:42;6.50;56.60
9118;DHT22;4594;50.994;7.126;2024-01-07T03:39:07;6.50;56.60
9118;DHT22;4594;50.994;7.126;2024-01-07T03:41:33;6.50;56.60
9118;DHT22;4594;50.994;7.126;2024-01-07T03:43:59;6.50;56.60
9118;DHT22;4594;50.994;7.126;2024-01-07T03:46:25;6.50;56.60
9118;DHT22;4594;50.994;7.126;2024-01-07T03:48:50;6.50;56.60
9118;DHT22;4594;50.994;7.126;2024-01-07T03:51:16;6.50;56.60
9118;DHT22;4594;50.994;7.126;2024-01-07T03:53:42;6.50;56.60
9118;DHT22;4594;50.994;7.126;2024-01-07T03:56:07;6.50;56.60
9118;DHT22;4594;50.994;7.126;2024-01-07T03:58:33;6.50;56.60
9118;DHT22;4594;50.994;7.126;2024-01-07T04:01:00;6.40;56.40
9118;DHT22;4594;50.994;7.126;2024-01-07T04:03:26;6.50;56.40
9118;DHT22;4594;50.994;7.126;2024-01-07T04:05:52;6.40;56.40
9118;DHT22;4594;50.994;7.126;2024-01-07T04:08:17;6.40;56.40
9118;DHT22;4594;50.994;7.126;2024-01-07T04:10:43;6.40;56.40
9118;DHT22;4594;50.994;7.126;2024-01-07T04:13:09;6.40;56.40
9118;DHT22;4594;50.994;7.126;2024-01-07T04:15:35;6.40;56.40
9118;DHT22;4594;50.994;7.126;2024-01-07T04:18:02;6.40;56.30
9118;DHT22;4594;50.994;7.126;2024-01-07T04:20:28;6.40;56.30
9118;DHT22;4594;50.994;7.126;2024-01-07T04:22:55;6.30;56.20
9118;DHT22;4594;50.994;7.126;2024-01-07T04:25:21;6.30;56.10
9118;DHT22;4594;50.994;7.126;2024-01-07T04:27:47;6.30;56.00
9118;DHT22;4594;50.994;7.126;2024-01-07T04:30:12;6.30;56.00
9118;DHT22;4594;50.994;7.126;2024-01-07T04:32:38;6.20;55.90
9118;DHT22;4594;50.994;7.126;2024-01-07T04:35:04;6.20;56.00
9118;DHT22;4594;50.994;7.126;2024-01-07T04:37:31;6.20;56.10
9118;DHT22;4594;50.994;7.126;2024-01-07T04:39:57;6.20;56.10
9118;DHT22;4594;50.994;7.126;2024-01-07T04:42:23;6.20;56.20
9118;DHT22;4594;50.994;7.126;2024-01-07T04:44:49;6.20;56.20
9118;DHT22;4594;50.994;7.126;2024-01-07T04:49:54;6.20;55.10
9118;DHT22;4594;50.994;7.126;2024-01-07T04:52:22;6.10;56.20
9118;DHT22;4594;50.994;7.126;2024-01-07T04:54:48;6.10;56.10
9118;DHT22;4594;50.994;7.126;2024-01-07T04:57:16;6.10;56.20
9118;DHT22;4594;50.994;7.126;2024-01-07T04:59:45;6.10;56.10
9118;DHT22;4594;50.994;7.126;2024-01-07T05:02:12;6.10;56.00
9118;DHT22;4594;50.994;7.126;2024-01-07T05:04:37;6.10;56.10
9118;DHT22;4594;50.994;7.126;2024-01-07T05:07:03;6.10;56.10
9118;DHT22;4594;50.994;7.126;2024-01-07T05:09:29;6.00;56.10
9118;DHT22;4594;50.994;7.126;2024-01-07T05:11:56;6.00;56.20
9118;DHT22;4594;50.994;7.126;2024-01-07T05:14:21;6.00;56.20
9118;DHT22;4594;50.994;7.126;2024-01-07T05:16:48;7.30;57.10
9118;DHT22;4594;50.994;7.126;2024-01-07T05:19:14;6.00;56.20
9118;DHT22;4594;50.994;7.126;2024-01-07T05:21:39;5.90;56.20
9118;DHT22;4594;50.994;7.126;2024-01-07T05:24:05;5.90;56.20
9118;DHT22;4594;50.994;7.126;2024-01-07T05:26:37;6.00;56.20
9118;DHT22;4594;50.994;7.126;2024-01-07T05:29:04;6.00;56.30
9118;DHT22;4594;50.994;7.126;2024-01-07T05:31:29;5.90;56.30
9118;DHT22;4594;50.994;7.126;2024-01-07T05:33:55;6.00;56.40
9118;DHT22;4594;50.994;7.126;2024-01-07T05:36:21;6.00;56.40
9118;DHT22;4594;50.994;7.126;2024-01-07T05:38:47;5.90;56.30
9118;DHT22;4594;50.994;7.126;2024-01-07T05:41:12;5.90;56.30
9118;DHT22;4594;50.994;7.126;2024-01-07T05:43:38;5.90;56.40
9118;DHT22;4594;50.994;7.126;2024-01-07T05:46:04;6.00;56.40
9118;DHT22;4594;50.994;7.126;2024-01-07T05:48:29;6.00;56.40
9118;DHT22;4594;50.994;7.126;2024-01-07T05:50:55;5.90;56.30
9118;DHT22;4594;50.994;7.126;2024-01-07T05:53:21;6.00;56.30
9118;DHT22;4594;50.994;7.126;2024-01-07T05:55:46;5.90;56.10
9118;DHT22;4594;50.994;7.126;2024-01-07T05:58:12;5.90;56.10
9118;DHT22;4594;50.994;7.126;2024-01-07T06:00:38;5.90;56.10
9118;DHT22;4594;50.994;7.126;2024-01-07T06:03:03;5.90;56.10
9118;DHT22;4594;50.994;7.126;2024-01-07T06:05:29;5.90;56.10
9118;DHT22;4594;50.994;7.126;2024-01-07T06:07:56;5.90;55.90
9118;DHT22;4594;50.994;7.126;2024-01-07T06:10:21;5.90;56.00
9118;DHT22;4594;50.994;7.126;2024-01-07T06:12:47;5.90;55.70
9118;DHT22;4594;50.994;7.126;2024-01-07T06:15:13;5.90;55.60
9118;DHT22;4594;50.994;7.126;2024-01-07T06:17:39;5.80;55.60
9118;DHT22;4594;50.994;7.126;2024-01-07T06:20:05;5.80;55.60
9118;DHT22;4594;50.994;7.126;2024-01-07T06:22:31;5.80;55.60
9118;DHT22;4594;50.994;7.126;2024-01-07T06:24:57;5.80;55.70
9118;DHT22;4594;50.994;7.126;2024-01-07T06:27:22;5.70;55.80
9118;DHT22;4594;50.994;7.126;2024-01-07T06:29:48;5.70;55.90
9118;DHT22;4594;50.994;7.126;2024-01-07T06:32:14;5.70;55.90
9118;DHT22;4594;50.994;7.126;2024-01-07T06:34:39;5.70;56.20
9118;DHT22;4594;50.994;7.126;2024-01-07T06:37:05;5.70;55.90
9118;DHT22;4594;50.994;7.126;2024-01-07T06:39:33;5.70;55.90
9118;DHT22;4594;50.994;7.126;2024-01-07T06:41:59;5.70;55.90
9118;DHT22;4594;50.994;7.126;2024-01-07T06:44:25;5.70;56.00
9118;DHT22;4594;50.994;7.126;2024-01-07T06:46:50;5.70;55.80
9118;DHT22;4594;50.994;7.126;2024-01-07T06:49:16;5.60;56.00
9118;DHT22;4594;50.994;7.126;2024-01-07T06:51:42;5.60;55.70
9118;DHT22;4594;50.994;7.126;2024-01-07T06:54:07;6.40;56.20
9118;DHT22;4594;50.994;7.126;2024-01-07T06:56:33;5.60;55.60
9118;DHT22;4594;50.994;7.126;2024-01-07T06:58:59;5.50;55.40
9118;DHT22;4594;50.994;7.126;2024-01-07T07:01:25;5.50;55.50
9118;DHT22;4594;50.994;7.126;2024-01-07T07:03:51;5.50;55.60
9118;DHT22;4594;50.994;7.126;2024-01-07T07:06:17;5.50;55.70
9118;DHT22;4594;50.994;7.126;2024-01-07T07:08:43;5.50;55.80
9118;DHT22;4594;50.994;7.126;2024-01-07T07:11:09;5.40;55.70
9118;DHT22;4594;50.994;7.126;2024-01-07T07:13:34;5.40;55.80
9118;DHT22;4594;50.994;7.126;2024-01-07T07:16:00;5.40;55.90
9118;DHT22;4594;50.994;7.126;2024-01-07T07:18:26;6.20;56.60
9118;DHT22;4594;50.994;7.126;2024-01-07T07:20:52;5.40;56.30
9118;DHT22;4594;50.994;7.126;2024-01-07T07:23:18;5.40;56.60
9118;DHT22;4594;50.994;7.126;2024-01-07T07:25:43;5.50;56.90
9118;DHT22;4594;50.994;7.126;2024-01-07T07:28:09;5.50;57.10
9118;DHT22;4594;50.994;7.126;2024-01-07T07:30:35;5.60;57.40
9118;DHT22;4594;50.994;7.126;2024-01-07T07:33:02;5.60;57.30
9118;DHT22;4594;50.994;7.126;2024-01-07T07:35:28;5.60;57.00
9118;DHT22;4594;50.994;7.126;2024-01-07T07:37:54;5.70;57.10
9118;DHT22;4594;50.994;7.126;2024-01-07T07:40:20;5.70;57.10
9118;DHT22;4594;50.994;7.126;2024-01-07T07:42:46;6.70;57.80
9118;DHT22;4594;50.994;7.126;2024-01-07T07:45:12;5.70;57.00
9118;DHT22;4594;50.994;7.126;2024-01-07T07:47:38;5.80;57.00
9118;DHT22;4594;50.994;7.126;2024-01-07T07:50:06;5.70;56.80
9118;DHT22;4594;50.994;7.126;2024-01-07T07:52:32;5.70;56.70
9118;DHT22;4594;50.994;7.126;2024-01-07T07:54:58;5.90;57.00
9118;DHT22;4594;50.994;7.126;2024-01-07T07:57:24;5.80;56.90
9118;DHT22;4594;50.994;7.126;2024-01-07T07:59:50;5.80;56.90
9118;DHT22;4594;50.994;7.126;2024-01-07T08:02:16;5.80;57.10
9118;DHT22;4594;50.994;7.126;2024-01-07T08:04:43;5.80;56.70
9118;DHT22;4594;50.994;7.126;2024-01-07T08:07:09;5.80;56.80
9118;DHT22;4594;50.994;7.126;2024-01-07T08:09:35;5.80;56.50
9118;DHT22;4594;50.994;7.126;2024-01-07T08:12:05;5.80;56.50
9118;DHT22;4594;50.994;7.126;2024-01-07T08:14:32;5.80;56.60
9118;DHT22;4594;50.994;7.126;2024-01-07T08:16:58;5.80;56.80
9118;DHT22;4594;50.994;7.126;2024-01-07T08:19:24;5.80;56.70
9118;DHT22;4594;50.994;7.126;2024-01-07T08:21:50;5.80;56.70
9118;DHT22;4594;50.994;7.126;2024-01-07T08:24:16;5.80;56.60
9118;DHT22;4594;50.994;7.126;2024-01-07T08:26:41;5.80;56.60
9118;DHT22;4594;50.994;7.126;2024-01-07T08:29:07;5.80;56.70
9118;DHT22;4594;50.994;7.126;2024-01-07T08:31:33;6.20;57.00
9118;DHT22;4594;50.994;7.126;2024-01-07T08:33:59;5.90;56.70
9118;DHT22;4594;50.994;7.126;2024-01-07T08:36:25;6.80;57.40
9118;DHT22;4594;50.994;7.126;2024-01-07T08:38:50;5.90;57.00
9118;DHT22;4594;50.994;7.126;2024-01-07T08:41:16;5.80;56.90
9118;DHT22;4594;50.994;7.126;2024-01-07T08:43:42;5.90;56.80
9118;DHT22;4594;50.994;7.126;2024-01-07T08:46:09;5.90;56.80
9118;DHT22;4594;50.994;7.126;2024-01-07T08:48:34;5.90;56.60
9118;DHT22;4594;50.994;7.126;2024-01-07T08:51:00;5.90;56.50
9118;DHT22;4594;50.994;7.126;2024-01-07T08:53:26;6.80;57.00
9118;DHT22;4594;50.994;7.126;2024-01-07T08:55:51;5.90;56.30
9118;DHT22;4594;50.994;7.126;2024-01-07T08:58:17;5.80;56.00
9118;DHT22;4594;50.994;7.126;2024-01-07T09:00:43;5.80;56.00
9118;DHT22;4594;50.994;7.126;2024-01-07T09:03:10;5.80;56.00
9118;DHT22;4594;50.994;7.126;2024-01-07T09:05:36;5.80;56.20
9118;DHT22;4594;50.994;7.126;2024-01-07T09:08:02;5.80;56.10
9118;DHT22;4594;50.994;7.126;2024-01-07T09:10:31;5.80;55.90
9118;DHT22;4594;50.994;7.126;2024-01-07T09:12:59;5.80;56.00
9118;DHT22;4594;50.994;7.126;2024-01-07T09:15:25;6.70;56.50
9118;DHT22;4594;50.994;7.126;2024-01-07T09:17:51;5.70;55.80
9118;DHT22;4594;50.994;7.126;2024-01-07T09:20:17;5.70;55.90
9118;DHT22;4594;50.994;7.126;2024-01-07T09:22:43;6.60;56.80
9118;DHT22;4594;50.994;7.126;2024-01-07T09:25:09;5.70;56.30
9118;DHT22;4594;50.994;7.126;2024-01-07T09:27:35;5.70;56.40
9118;DHT22;4594;50.994;7.126;2024-01-07T09:30:01;5.70;56.30
9118;DHT22;4594;50.994;7.126;2024-01-07T09:32:27;5.80;56.30
9118;DHT22;4594;50.994;7.126;2024-01-07T09:34:52;5.70;56.40
9118;DHT22;4594;50.994;7.126;2024-01-07T09:37:19;5.70;56.00
9118;DHT22;4594;50.994;7.126;2024-01-07T09:39:45;5.70;55.80
9118;DHT22;4594;50.994;7.126;2024-01-07T09:42:15;5.70;55.90
9118;DHT22;4594;50.994;7.126;2024-01-07T09:44:42;5.70;55.60
9118;DHT22;4594;50.994;7.126;2024-01-07T09:47:13;5.60;55.90
9118;DHT22;4594;50.994;7.126;2024-01-07T09:49:41;5.70;55.60
9118;DHT22;4594;50.994;7.126;2024-01-07T09:52:09;5.70;56.20
9118;DHT22;4594;50.994;7.126;2024-01-07T09:54:39;5.70;56.20
9118;DHT22;4594;50.994;7.126;2024-01-07T09:57:07;5.70;55.80
9118;DHT22;4594;50.994;7.126;2024-01-07T09:59:34;5.70;56.20
9118;DHT22;4594;50.994;7.126;2024-01-07T10:02:04;5.70;56.20
9118;DHT22;4594;50.994;7.126;2024-01-07T10:04:30;5.70;56.20
9118;DHT22;4594;50.994;7.126;2024-01-07T10:06:57;5.70;55.90
9118;DHT22;4594;50.994;7.126;2024-01-07T10:09:23;5.70;56.00
9118;DHT22;4594;50.994;7.126;2024-01-07T10:11:52;5.70;55.80
9118;DHT22;4594;50.994;7.126;2024-01-07T10:14:18;5.70;55.80
9118;DHT22;4594;50.994;7.126;2024-01-07T10:16:44;5.70;55.90
9118;DHT22;4594;50.994;7.126;2024-01-07T10:19:11;5.70;55.90
9118;DHT22;4594;50.994;7.126;2024-01-07T10:21:36;5.70;56.10
9118;DHT22;4594;50.994;7.126;2024-01-07T10:24:12;5.70;56.20
9118;DHT22;4594;50.994;7.126;2024-01-07T10:26:39;5.80;55.10
9118;DHT22;4594;50.994;7.126;2024-01-07T10:29:07;5.80;56.40
9118;DHT22;4594;50.994;7.126;2024-01-07T10:31:38;5.80;56.20
9118;DHT22;4594;50.994;7.126;2024-01-07T10:34:09;5.80;55.80
9118;DHT22;4594;50.994;7.126;2024-01-07T10:36:36;5.80;55.80
9118;DHT22;4594;50.994;7.126;2024-01-07T10:39:02;5.80;55.50
9118;DHT22;4594;50.994;7.126;2024-01-07T10:41:29;5.70;55.40
9118;DHT22;4594;50.994;7.126;2024-01-07T10:43:56;5.70;55.40
9118;DHT22;4594;50.994;7.126;2024-01-07T10:46:23;5.70;55.50
9118;DHT22;4594;50.994;7.126;2024-01-07T10:48:59;5.70;55.70
9118;DHT22;4594;50.994;7.126;2024-01-07T10:51:28;5.70;55.00
9118;DHT22;4594;50.994;7.126;2024-01-07T10:53:55;5.70;56.10
9118;DHT22;4594;50.994;7.126;2024-01-07T10:56:28;5.70;55.90
9118;DHT22;4594;50.994;7.126;2024-01-07T10:59:01;5.70;55.10
9118;DHT22;4594;50.994;7.126;2024-01-07T11:01:29;5.70;55.80
9118;DHT22;4594;50.994;7.126;2024-01-07T11:04:10;5.70;55.50
9118;DHT22;4594;50.994;7.126;2024-01-07T11:06:46;5.70;54.10
9118;DHT22;4594;50.994;7.126;2024-01-07T11:11:59;5.70;54.50
9118;DHT22;4594;50.994;7.126;2024-01-07T11:17:07;5.70;54.80
9118;DHT22;4594;50.994;7.126;2024-01-07T11:19:35;5.70;55.90
9118;DHT22;4594;50.994;7.126;2024-01-07T11:24:56;5.70;54.90
9118;DHT22;4594;50.994;7.126;2024-01-07T11:27:29;5.70;56.00
9118;DHT22;4594;50.994;7.126;2024-01-07T11:30:05;5.70;55.50
9118;DHT22;4594;50.994;7.126;2024-01-07T11:32:34;5.70;55.40
9118;DHT22;4594;50.994;7.126;2024-01-07T11:35:00;5.70;55.90
9118;DHT22;4594;50.994;7.126;2024-01-07T11:37:27;5.70;55.90
9118;DHT22;4594;50.994;7.126;2024-01-07T11:39:57;5.70;55.30
9118;DHT22;4594;50.994;7.126;2024-01-07T11:42:23;5.70;55.00
9118;DHT22;4594;50.994;7.126;2024-01-07T11:44:53;5.70;55.80
9118;DHT22;4594;50.994;7.126;2024-01-07T11:47:21;5.70;55.40
9118;DHT22;4594;50.994;7.126;2024-01-07T11:49:48;5.70;56.10
9118;DHT22;4594;50.994;7.126;2024-01-07T11:52:17;5.70;56.00
9118;DHT22;4594;50.994;7.126;2024-01-07T11:54:44;5.70;55.70
9118;DHT22;4594;50.994;7.126;2024-01-07T11:57:10;6.50;56.40
9118;DHT22;4594;50.994;7.126;2024-01-07T11:59:36;6.70;56.20
9118;DHT22;4594;50.994;7.126;2024-01-07T12:02:03;7.00;56.30
9118;DHT22;4594;50.994;7.126;2024-01-07T12:04:33;6.40;55.90
9118;DHT22;4594;50.994;7.126;2024-01-07T12:07:01;5.70;55.10
9118;DHT22;4594;50.994;7.126;2024-01-07T12:09:29;4.20;53.80
9118;DHT22;4594;50.994;7.126;2024-01-07T12:11:55;5.60;54.80
9118;DHT22;4594;50.994;7.126;2024-01-07T12:14:21;5.70;55.00
9118;DHT22;4594;50.994;7.126;2024-01-07T12:16:48;5.70;55.20
9118;DHT22;4594;50.994;7.126;2024-01-07T12:19:14;5.60;55.20
9118;DHT22;4594;50.994;7.126;2024-01-07T12:21:39;5.60;55.30
9118;DHT22;4594;50.994;7.126;2024-01-07T12:24:05;5.60;55.30
9118;DHT22;4594;50.994;7.126;2024-01-07T12:26:31;5.60;55.00
9118;DHT22;4594;50.994;7.126;2024-01-07T12:28:59;5.60;55.00
9118;DHT22;4594;50.994;7.126;2024-01-07T12:31:32;5.60;55.00
9118;DHT22;4594;50.994;7.126;2024-01-07T12:33:59;6.80;55.80
9118;DHT22;4594;50.994;7.126;2024-01-07T12:36:25;5.50;54.90
9118;DHT22;4594;50.994;7.126;2024-01-07T12:38:52;5.60;54.90
9118;DHT22;4594;50.994;7.126;2024-01-07T12:41:22;5.50;54.50
9118;DHT22;4594;50.994;7.126;2024-01-07T12:43:49;5.50;54.70
9118;DHT22;4594;50.994;7.126;2024-01-07T12:46:15;5.50;55.00
9118;DHT22;4594;50.994;7.126;2024-01-07T12:48:41;5.40;54.90
9118;DHT22;4594;50.994;7.126;2024-01-07T12:51:07;5.40;54.80
9118;DHT22;4594;50.994;7.126;2024-01-07T12:53:32;5.40;54.70
9118;DHT22;4594;50.994;7.126;2024-01-07T12:55:58;6.10;55.50
9118;DHT22;4594;50.994;7.126;2024-01-07T12:58:24;5.40;54.90
9118;DHT22;4594;50.994;7.126;2024-01-07T13:00:50;5.90;55.30
9118;DHT22;4594;50.994;7.126;2024-01-07T13:03:15;6.20;55.30
9118;DHT22;4594;50.994;7.126;2024-01-07T13:05:45;5.40;54.70
9118;DHT22;4594;50.994;7.126;2024-01-07T13:08:12;5.30;54.40
9118;DHT22;4594;50.994;7.126;2024-01-07T13:10:39;5.30;54.20
9118;DHT22;4594;50.994;7.126;2024-01-07T13:13:04;5.30;54.20
9118;DHT22;4594;50.994;7.126;2024-01-07T13:15:30;5.30;54.40
9118;DHT22;4594;50.994;7.126;2024-01-07T13:17:57;5.30;54.50
9118;DHT22;4594;50.994;7.126;2024-01-07T13:20:23;5.20;54.30
9118;DHT22;4594;50.994;7.126;2024-01-07T13:22:49;5.20;54.40
9118;DHT22;4594;50.994;7.126;2024-01-07T13:25:16;5.20;54.60
9118;DHT22;4594;50.994;7.126;2024-01-07T13:27:42;5.20;54.40
9118;DHT22;4594;50.994;7.126;2024-01-07T13:30:08;5.20;54.50
9118;DHT22;4594;50.994;7.126;2024-01-07T13:32:35;5.20;54.40
9118;DHT22;4594;50.994;7.126;2024-01-07T13:35:03;5.20;54.40
9118;DHT22;4594;50.994;7.126;2024-01-07T13:37:30;5.20;54.40
9118;DHT22;4594;50.994;7.126;2024-01-07T13:39:58;5.20;54.20
9118;DHT22;4594;50.994;7.126;2024-01-07T13:42:24;5.20;53.90
9118;DHT22;4594;50.994;7.126;2024-01-07T13:44:50;5.10;54.10
9118;DHT22;4594;50.994;7.126;2024-01-07T13:47:16;5.10;53.80
9118;DHT22;4594;50.994;7.126;2024-01-07T13:49:42;5.10;53.60
9118;DHT22;4594;50.994;7.126;2024-01-07T13:52:10;5.00;53.60
9118;DHT22;4594;50.994;7.126;2024-01-07T13:54:36;5.00;53.30
9118;DHT22;4594;50.994;7.126;2024-01-07T13:57:03;4.90;53.10
9118;DHT22;4594;50.994;7.126;2024-01-07T13:59:29;4.90;53.30
9118;DHT22;4594;50.994;7.126;2024-01-07T14:01:55;5.90;54.10
9118;DHT22;4594;50.994;7.126;2024-01-07T14:04:23;4.80;53.00
9118;DHT22;4594;50.994;7.126;2024-01-07T14:06:54;4.80;53.00
9118;DHT22;4594;50.994;7.126;2024-01-07T14:09:21;4.70;52.00
9118;DHT22;4594;50.994;7.126;2024-01-07T14:11:47;4.70;52.90
9118;DHT22;4594;50.994;7.126;2024-01-07T14:14:13;4.60;52.80
9118;DHT22;4594;50.994;7.126;2024-01-07T14:16:38;4.60;53.00
9118;DHT22;4594;50.994;7.126;2024-01-07T14:19:05;4.50;52.90
9118;DHT22;4594;50.994;7.126;2024-01-07T14:21:32;4.50;52.80
9118;DHT22;4594;50.994;7.126;2024-01-07T14:23:57;4.50;52.80
9118;DHT22;4594;50.994;7.126;2024-01-07T14:26:23;4.40;52.50
9118;DHT22;4594;50.994;7.126;2024-01-07T14:28:52;4.40;51.80
9118;DHT22;4594;50.994;7.126;2024-01-07T14:31:18;4.40;51.40
9118;DHT22;4594;50.994;7.126;2024-01-07T14:33:44;4.30;51.90
9118;DHT22;4594;50.994;7.126;2024-01-07T14:36:10;4.20;51.80
9118;DHT22;4594;50.994;7.126;2024-01-07T14:38:45;4.20;52.00
9118;DHT22;4594;50.994;7.126;2024-01-07T14:41:13;4.10;52.10
9118;DHT22;4594;50.994;7.126;2024-01-07T14:43:42;4.10;52.20
9118;DHT22;4594;50.994;7.126;2024-01-07T14:46:08;4.00;52.10
9118;DHT22;4594;50.994;7.126;2024-01-07T14:48:34;4.00;52.00
9118;DHT22;4594;50.994;7.126;2024-01-07T14:51:01;5.10;53.10
9118;DHT22;4594;50.994;7.126;2024-01-07T14:53:27;3.90;52.30
9118;DHT22;4594;50.994;7.126;2024-01-07T14:55:56;3.90;52.20
9118;DHT22;4594;50.994;7.126;2024-01-07T14:58:26;3.80;51.20
9118;DHT22;4594;50.994;7.126;2024-01-07T15:00:52;3.80;51.50
9118;DHT22;4594;50.994;7.126;2024-01-07T15:03:18;3.70;51.30
9118;DHT22;4594;50.994;7.126;2024-01-07T15:05:45;3.70;51.50
9118;DHT22;4594;50.994;7.126;2024-01-07T15:08:10;3.70;51.60
9118;DHT22;4594;50.994;7.126;2024-01-07T15:10:39;3.60;51.70
9118;DHT22;4594;50.994;7.126;2024-01-07T15:13:06;3.60;51.40
9118;DHT22;4594;50.994;7.126;2024-01-07T15:15:32;3.60;51.60
9118;DHT22;4594;50.994;7.126;2024-01-07T15:17:58;3.50;51.50
9118;DHT22;4594;50.994;7.126;2024-01-07T15:20:24;4.60;52.50
9118;DHT22;4594;50.994;7.126;2024-01-07T15:22:51;3.50;51.60
9118;DHT22;4594;50.994;7.126;2024-01-07T15:25:18;3.40;50.70
9118;DHT22;4594;50.994;7.126;2024-01-07T15:27:44;3.40;50.60
9118;DHT22;4594;50.994;7.126;2024-01-07T15:30:11;3.30;50.80
9118;DHT22;4594;50.994;7.126;2024-01-07T15:32:37;3.30;50.70
9118;DHT22;4594;50.994;7.126;2024-01-07T15:35:04;3.30;50.80
9118;DHT22;4594;50.994;7.126;2024-01-07T15:37:30;3.20;50.80
9118;DHT22;4594;50.994;7.126;2024-01-07T15:39:57;3.20;51.00
9118;DHT22;4594;50.994;7.126;2024-01-07T15:42:23;3.20;51.00
9118;DHT22;4594;50.994;7.126;2024-01-07T15:44:50;3.10;51.40
9118;DHT22;4594;50.994;7.126;2024-01-07T15:47:16;3.10;51.60
9118;DHT22;4594;50.994;7.126;2024-01-07T15:49:41;3.10;51.70
9118;DHT22;4594;50.994;7.126;2024-01-07T15:52:07;3.10;51.30
9118;DHT22;4594;50.994;7.126;2024-01-07T15:54:32;3.10;51.60
9118;DHT22;4594;50.994;7.126;2024-01-07T15:56:58;3.10;51.70
9118;DHT22;4594;50.994;7.126;2024-01-07T15:59:24;3.10;51.90
9118;DHT22;4594;50.994;7.126;2024-01-07T16:01:50;3.10;51.50
9118;DHT22;4594;50.994;7.126;2024-01-07T16:04:16;3.10;51.70
9118;DHT22;4594;50.994;7.126;2024-01-07T16:06:43;3.10;51.70
9118;DHT22;4594;50.994;7.126;2024-01-07T16:09:12;3.10;51.90
9118;DHT22;4594;50.994;7.126;2024-01-07T16:11:38;3.10;51.60
9118;DHT22;4594;50.994;7.126;2024-01-07T16:14:05;3.10;51.80
9118;DHT22;4594;50.994;7.126;2024-01-07T16:16:31;4.60;53.00
9118;DHT22;4594;50.994;7.126;2024-01-07T16:18:58;3.10;52.10
9118;DHT22;4594;50.994;7.126;2024-01-07T16:21:24;3.10;52.00
9118;DHT22;4594;50.994;7.126;2024-01-07T16:23:50;3.10;51.90